sensor_id;sensor_type;location;lat;lon;timestamp;P1;durP1;ratioP1;P2;durP2;ratioP2
52838;SDS011;39219;53.678;9.856;2023-04-03T00:00:12;8.40;;;2.30;;
52838;SDS011;39219;53.678;9.856;2023-04-03T00:02:38;4.82;;;2.35;;
52838;SDS011;39219;53.678;9.856;2023-04-03T00:05:05;7.40;;;2.30;;
52838;SDS011;39219;53.678;9.856;2023-04-03T00:07:32;7.82;;;2.40;;
52838;SDS011;39219;53.678;9.856;2023-04-03T00:09:58;5.90;;;2.22;;
52838;SDS011;39219;53.678;9.856;2023-04-03T00:12:24;6.28;;;2.38;;
52838;SDS011;39219;53.678;9.856;2023-04-03T00:14:52;7.32;;;2.33;;
52838;SDS011;39219;53.678;9.856;2023-04-03T00:17:18;5.13;;;2.10;;
52838;SDS011;39219;53.678;9.856;2023-04-03T00:19:45;6.03;;;2.15;;
52838;SDS011;39219;53.678;9.856;2023-04-03T00:22:11;5.82;;;2.00;;
52838;SDS011;39219;53.678;9.856;2023-04-03T00:24:37;7.85;;;2.20;;
52838;SDS011;39219;53.678;9.856;2023-04-03T00:27:03;7.40;;;2.33;;
52838;SDS011;39219;53.678;9.856;2023-04-03T00:29:30;4.95;;;2.08;;
52838;SDS011;39219;53.678;9.856;2023-04-03T00:31:57;7.95;;;2.20;;
52838;SDS011;39219;53.678;9.856;2023-04-03T00:34:24;5.70;;;2.17;;
52838;SDS011;39219;53.678;9.856;2023-04-03T00:36:51;5.88;;;2.40;;
52838;SDS011;39219;53.678;9.856;2023-04-03T00:39:17;5.90;;;2.20;;
52838;SDS011;39219;53.678;9.856;2023-04-03T00:41:43;9.27;;;2.65;;
52838;SDS011;39219;53.678;9.856;2023-04-03T00:44:23;5.35;;;2.47;;
52838;SDS011;39219;53.678;9.856;2023-04-03T00:47:10;6.40;;;2.50;;
52838;SDS011;39219;53.678;9.856;2023-04-03T00:49:37;5.65;;;2.42;;
52838;SDS011;39219;53.678;9.856;2023-04-03T00:52:04;7.88;;;2.80;;
52838;SDS011;39219;53.678;9.856;2023-04-03T00:54:32;6.85;;;2.33;;
52838;SDS011;39219;53.678;9.856;2023-04-03T00:56:58;5.20;;;2.60;;
52838;SDS011;39219;53.678;9.856;2023-04-03T00:59:25;9.23;;;2.65;;
52838;SDS011;39219;53.678;9.856;2023-04-03T01:01:53;4.55;;;2.20;;
52838;SDS011;39219;53.678;9.856;2023-04-03T01:04:27;4.60;;;2.05;;
52838;SDS011;39219;53.678;9.856;2023-04-03T01:06:54;6.95;;;2.28;;
52838;SDS011;39219;53.678;9.856;2023-04-03T01:09:21;7.93;;;2.20;;
52838;SDS011;39219;53.678;9.856;2023-04-03T01:11:48;7.55;;;2.30;;
52838;SDS011;39219;53.678;9.856;2023-04-03T01:14:14;8.30;;;2.67;;
52838;SDS011;39219;53.678;9.856;2023-04-03T01:16:40;5.18;;;2.30;;
52838;SDS011;39219;53.678;9.856;2023-04-03T01:19:07;10.07;;;2.70;;
52838;SDS011;39219;53.678;9.856;2023-04-03T01:21:40;7.80;;;2.50;;
52838;SDS011;39219;53.678;9.856;2023-04-03T01:24:16;9.25;;;2.60;;
52838;SDS011;39219;53.678;9.856;2023-04-03T01:26:44;9.10;;;2.50;;
52838;SDS011;39219;53.678;9.856;2023-04-03T01:29:11;6.55;;;2.40;;
52838;SDS011;39219;53.678;9.856;2023-04-03T01:31:45;6.40;;;2.65;;
52838;SDS011;39219;53.678;9.856;2023-04-03T01:34:11;10.02;;;2.80;;
52838;SDS011;39219;53.678;9.856;2023-04-03T01:36:37;9.07;;;2.90;;
52838;SDS011;39219;53.678;9.856;2023-04-03T01:39:05;8.07;;;2.70;;
52838;SDS011;39219;53.678;9.856;2023-04-03T01:41:31;7.32;;;2.58;;
52838;SDS011;39219;53.678;9.856;2023-04-03T01:43:58;9.15;;;2.70;;
52838;SDS011;39219;53.678;9.856;2023-04-03T01:46:24;9.90;;;3.00;;
52838;SDS011;39219;53.678;9.856;2023-04-03T01:48:52;7.57;;;2.80;;
52838;SDS011;39219;53.678;9.856;2023-04-03T01:51:18;7.80;;;2.60;;
52838;SDS011;39219;53.678;9.856;2023-04-03T01:53:45;7.28;;;2.63;;
52838;SDS011;39219;53.678;9.856;2023-04-03T01:56:11;5.80;;;3.00;;
52838;SDS011;39219;53.678;9.856;2023-04-03T01:58:37;6.00;;;2.58;;
52838;SDS011;39219;53.678;9.856;2023-04-03T02:01:04;9.00;;;2.80;;
52838;SDS011;39219;53.678;9.856;2023-04-03T02:03:31;5.90;;;2.53;;
52838;SDS011;39219;53.678;9.856;2023-04-03T02:05:58;6.63;;;2.55;;
52838;SDS011;39219;53.678;9.856;2023-04-03T02:08:25;9.02;;;2.75;;
52838;SDS011;39219;53.678;9.856;2023-04-03T02:10:51;9.18;;;3.13;;
52838;SDS011;39219;53.678;9.856;2023-04-03T02:13:17;7.97;;;2.80;;
52838;SDS011;39219;53.678;9.856;2023-04-03T02:15:44;7.57;;;2.80;;
52838;SDS011;39219;53.678;9.856;2023-04-03T02:18:11;8.25;;;3.00;;
52838;SDS011;39219;53.678;9.856;2023-04-03T02:20:37;10.68;;;2.95;;
52838;SDS011;39219;53.678;9.856;2023-04-03T02:23:05;9.77;;;3.15;;
52838;SDS011;39219;53.678;9.856;2023-04-03T02:25:32;5.82;;;2.53;;
52838;SDS011;39219;53.678;9.856;2023-04-03T02:27:58;8.00;;;2.67;;
52838;SDS011;39219;53.678;9.856;2023-04-03T02:30:25;7.05;;;2.92;;
52838;SDS011;39219;53.678;9.856;2023-04-03T02:32:51;9.32;;;2.88;;
52838;SDS011;39219;53.678;9.856;2023-04-03T02:35:17;7.32;;;2.97;;
52838;SDS011;39219;53.678;9.856;2023-04-03T02:37:44;7.82;;;2.55;;
52838;SDS011;39219;53.678;9.856;2023-04-03T02:40:12;9.63;;;3.05;;
52838;SDS011;39219;53.678;9.856;2023-04-03T02:42:38;7.72;;;3.03;;
52838;SDS011;39219;53.678;9.856;2023-04-03T02:45:05;10.50;;;2.88;;
52838;SDS011;39219;53.678;9.856;2023-04-03T02:47:31;8.45;;;3.00;;
52838;SDS011;39219;53.678;9.856;2023-04-03T02:49:57;7.72;;;2.88;;
52838;SDS011;39219;53.678;9.856;2023-04-03T02:52:24;6.70;;;2.75;;
52838;SDS011;39219;53.678;9.856;2023-04-03T02:54:50;7.20;;;2.70;;
52838;SDS011;39219;53.678;9.856;2023-04-03T02:57:18;6.95;;;2.53;;
52838;SDS011;39219;53.678;9.856;2023-04-03T02:59:44;9.13;;;2.80;;
52838;SDS011;39219;53.678;9.856;2023-04-03T03:02:11;7.15;;;2.63;;
52838;SDS011;39219;53.678;9.856;2023-04-03T03:04:37;5.97;;;2.80;;
52838;SDS011;39219;53.678;9.856;2023-04-03T03:07:03;7.68;;;2.83;;
52838;SDS011;39219;53.678;9.856;2023-04-03T03:09:30;6.53;;;2.63;;
52838;SDS011;39219;53.678;9.856;2023-04-03T03:11:56;7.85;;;2.95;;
52838;SDS011;39219;53.678;9.856;2023-04-03T03:14:24;5.68;;;2.42;;
52838;SDS011;39219;53.678;9.856;2023-04-03T03:16:50;7.45;;;2.42;;
52838;SDS011;39219;53.678;9.856;2023-04-03T03:19:16;8.45;;;3.00;;
52838;SDS011;39219;53.678;9.856;2023-04-03T03:21:42;7.10;;;3.03;;
52838;SDS011;39219;53.678;9.856;2023-04-03T03:24:09;8.00;;;2.97;;
52838;SDS011;39219;53.678;9.856;2023-04-03T03:26:36;7.57;;;2.60;;
52838;SDS011;39219;53.678;9.856;2023-04-03T03:29:03;6.43;;;2.65;;
52838;SDS011;39219;53.678;9.856;2023-04-03T03:31:30;8.35;;;2.90;;
52838;SDS011;39219;53.678;9.856;2023-04-03T03:33:57;6.03;;;2.55;;
52838;SDS011;39219;53.678;9.856;2023-04-03T03:36:23;5.13;;;2.70;;
52838;SDS011;39219;53.678;9.856;2023-04-03T03:38:49;8.07;;;2.72;;
52838;SDS011;39219;53.678;9.856;2023-04-03T03:41:15;6.38;;;2.60;;
52838;SDS011;39219;53.678;9.856;2023-04-03T03:43:42;5.95;;;2.60;;
52838;SDS011;39219;53.678;9.856;2023-04-03T03:46:08;5.82;;;2.72;;
52838;SDS011;39219;53.678;9.856;2023-04-03T03:48:36;7.63;;;2.60;;
52838;SDS011;39219;53.678;9.856;2023-04-03T03:51:02;10.50;;;3.10;;
52838;SDS011;39219;53.678;9.856;2023-04-03T03:53:28;7.32;;;2.78;;
52838;SDS011;39219;53.678;9.856;2023-04-03T03:55:55;7.72;;;2.50;;
52838;SDS011;39219;53.678;9.856;2023-04-03T03:58:21;6.00;;;2.80;;
52838;SDS011;39219;53.678;9.856;2023-04-03T04:00:47;6.63;;;2.80;;
52838;SDS011;39219;53.678;9.856;2023-04-03T04:03:14;6.65;;;2.92;;
52838;SDS011;39219;53.678;9.856;2023-04-03T04:05:41;7.43;;;2.75;;
52838;SDS011;39219;53.678;9.856;2023-04-03T04:08:07;8.25;;;3.20;;
52838;SDS011;39219;53.678;9.856;2023-04-03T04:10:34;7.55;;;2.70;;
52838;SDS011;39219;53.678;9.856;2023-04-03T04:13:01;6.50;;;3.08;;
52838;SDS011;39219;53.678;9.856;2023-04-03T04:15:27;10.15;;;3.10;;
52838;SDS011;39219;53.678;9.856;2023-04-03T04:17:53;8.65;;;3.15;;
52838;SDS011;39219;53.678;9.856;2023-04-03T04:20:19;9.00;;;3.20;;
52838;SDS011;39219;53.678;9.856;2023-04-03T04:22:47;10.45;;;3.65;;
52838;SDS011;39219;53.678;9.856;2023-04-03T04:25:13;11.93;;;3.80;;
52838;SDS011;39219;53.678;9.856;2023-04-03T04:27:40;11.52;;;3.50;;
52838;SDS011;39219;53.678;9.856;2023-04-03T04:30:06;9.75;;;3.47;;
52838;SDS011;39219;53.678;9.856;2023-04-03T04:32:33;10.48;;;4.03;;
52838;SDS011;39219;53.678;9.856;2023-04-03T04:34:59;10.68;;;3.75;;
52838;SDS011;39219;53.678;9.856;2023-04-03T04:37:26;9.10;;;3.60;;
52838;SDS011;39219;53.678;9.856;2023-04-03T04:39:53;8.68;;;3.47;;
52838;SDS011;39219;53.678;9.856;2023-04-03T04:42:19;10.95;;;3.88;;
52838;SDS011;39219;53.678;9.856;2023-04-03T04:44:46;6.90;;;3.40;;
52838;SDS011;39219;53.678;9.856;2023-04-03T04:47:12;10.52;;;3.80;;
52838;SDS011;39219;53.678;9.856;2023-04-03T04:49:38;11.75;;;3.70;;
52838;SDS011;39219;53.678;9.856;2023-04-03T04:52:05;11.20;;;3.97;;
52838;SDS011;39219;53.678;9.856;2023-04-03T04:54:31;9.00;;;3.67;;
52838;SDS011;39219;53.678;9.856;2023-04-03T04:56:58;9.98;;;3.80;;
52838;SDS011;39219;53.678;9.856;2023-04-03T04:59:25;7.88;;;3.47;;
52838;SDS011;39219;53.678;9.856;2023-04-03T05:01:51;8.35;;;3.70;;
52838;SDS011;39219;53.678;9.856;2023-04-03T05:04:17;7.32;;;3.50;;
52838;SDS011;39219;53.678;9.856;2023-04-03T05:06:44;10.02;;;3.72;;
52838;SDS011;39219;53.678;9.856;2023-04-03T05:09:10;11.40;;;4.00;;
52838;SDS011;39219;53.678;9.856;2023-04-03T05:11:37;11.73;;;3.97;;
52838;SDS011;39219;53.678;9.856;2023-04-03T05:14:04;8.55;;;4.10;;
52838;SDS011;39219;53.678;9.856;2023-04-03T05:16:31;9.32;;;4.05;;
52838;SDS011;39219;53.678;9.856;2023-04-03T05:18:57;9.18;;;4.28;;
52838;SDS011;39219;53.678;9.856;2023-04-03T05:21:24;10.07;;;4.15;;
52838;SDS011;39219;53.678;9.856;2023-04-03T05:23:52;10.93;;;4.47;;
52838;SDS011;39219;53.678;9.856;2023-04-03T05:26:19;9.60;;;4.28;;
52838;SDS011;39219;53.678;9.856;2023-04-03T05:28:45;11.38;;;4.47;;
52838;SDS011;39219;53.678;9.856;2023-04-03T05:31:13;11.13;;;4.97;;
52838;SDS011;39219;53.678;9.856;2023-04-03T05:33:40;13.68;;;5.75;;
52838;SDS011;39219;53.678;9.856;2023-04-03T05:36:06;11.18;;;5.78;;
52838;SDS011;39219;53.678;9.856;2023-04-03T05:38:33;16.00;;;6.95;;
52838;SDS011;39219;53.678;9.856;2023-04-03T05:40:59;12.57;;;5.65;;
52838;SDS011;39219;53.678;9.856;2023-04-03T05:43:25;11.15;;;5.10;;
52838;SDS011;39219;53.678;9.856;2023-04-03T05:45:52;8.90;;;3.75;;
52838;SDS011;39219;53.678;9.856;2023-04-03T05:48:19;8.77;;;3.83;;
52838;SDS011;39219;53.678;9.856;2023-04-03T05:50:46;7.07;;;3.15;;
52838;SDS011;39219;53.678;9.856;2023-04-03T05:53:14;7.72;;;2.92;;
52838;SDS011;39219;53.678;9.856;2023-04-03T05:55:41;6.25;;;2.92;;
52838;SDS011;39219;53.678;9.856;2023-04-03T05:58:08;4.97;;;2.88;;
52838;SDS011;39219;53.678;9.856;2023-04-03T06:00:34;6.35;;;2.90;;
52838;SDS011;39219;53.678;9.856;2023-04-03T06:03:00;6.88;;;2.95;;
52838;SDS011;39219;53.678;9.856;2023-04-03T06:05:28;5.25;;;2.67;;
52838;SDS011;39219;53.678;9.856;2023-04-03T06:07:54;5.65;;;2.70;;
52838;SDS011;39219;53.678;9.856;2023-04-03T06:10:22;7.55;;;2.72;;
52838;SDS011;39219;53.678;9.856;2023-04-03T06:12:48;6.53;;;2.67;;
52838;SDS011;39219;53.678;9.856;2023-04-03T06:15:15;6.35;;;2.50;;
52838;SDS011;39219;53.678;9.856;2023-04-03T06:17:42;7.60;;;2.83;;
52838;SDS011;39219;53.678;9.856;2023-04-03T06:20:08;5.55;;;2.60;;
52838;SDS011;39219;53.678;9.856;2023-04-03T06:22:36;6.78;;;2.72;;
52838;SDS011;39219;53.678;9.856;2023-04-03T06:25:03;5.68;;;2.60;;
52838;SDS011;39219;53.678;9.856;2023-04-03T06:27:29;5.55;;;2.75;;
52838;SDS011;39219;53.678;9.856;2023-04-03T06:29:56;6.22;;;2.70;;
52838;SDS011;39219;53.678;9.856;2023-04-03T06:32:22;7.32;;;2.80;;
52838;SDS011;39219;53.678;9.856;2023-04-03T06:34:49;5.55;;;2.45;;
52838;SDS011;39219;53.678;9.856;2023-04-03T06:37:15;5.60;;;2.58;;
52838;SDS011;39219;53.678;9.856;2023-04-03T06:39:44;7.28;;;2.65;;
52838;SDS011;39219;53.678;9.856;2023-04-03T06:42:11;6.80;;;2.78;;
52838;SDS011;39219;53.678;9.856;2023-04-03T06:44:38;6.38;;;2.90;;
52838;SDS011;39219;53.678;9.856;2023-04-03T06:47:04;5.28;;;2.58;;
52838;SDS011;39219;53.678;9.856;2023-04-03T06:49:30;6.13;;;2.80;;
52838;SDS011;39219;53.678;9.856;2023-04-03T06:51:57;7.25;;;2.63;;
52838;SDS011;39219;53.678;9.856;2023-04-03T06:54:23;5.97;;;2.60;;
52838;SDS011;39219;53.678;9.856;2023-04-03T06:56:51;6.43;;;2.50;;
52838;SDS011;39219;53.678;9.856;2023-04-03T06:59:17;6.38;;;2.45;;
52838;SDS011;39219;53.678;9.856;2023-04-03T07:01:44;5.65;;;2.33;;
52838;SDS011;39219;53.678;9.856;2023-04-03T07:04:11;4.28;;;2.47;;
52838;SDS011;39219;53.678;9.856;2023-04-03T07:06:37;5.63;;;2.65;;
52838;SDS011;39219;53.678;9.856;2023-04-03T07:09:03;5.53;;;2.55;;
52838;SDS011;39219;53.678;9.856;2023-04-03T07:11:30;4.85;;;2.50;;
52838;SDS011;39219;53.678;9.856;2023-04-03T07:13:57;7.68;;;2.92;;
52838;SDS011;39219;53.678;9.856;2023-04-03T07:16:24;5.45;;;2.50;;
52838;SDS011;39219;53.678;9.856;2023-04-03T07:18:50;7.03;;;2.72;;
52838;SDS011;39219;53.678;9.856;2023-04-03T07:21:16;6.60;;;2.65;;
52838;SDS011;39219;53.678;9.856;2023-04-03T07:23:43;5.30;;;2.50;;
52838;SDS011;39219;53.678;9.856;2023-04-03T07:26:09;5.60;;;2.50;;
52838;SDS011;39219;53.678;9.856;2023-04-03T07:28:36;6.22;;;2.53;;
52838;SDS011;39219;53.678;9.856;2023-04-03T07:31:05;4.75;;;2.30;;
52838;SDS011;39219;53.678;9.856;2023-04-03T07:33:33;6.78;;;2.40;;
52838;SDS011;39219;53.678;9.856;2023-04-03T07:35:59;6.70;;;2.60;;
52838;SDS011;39219;53.678;9.856;2023-04-03T07:38:26;5.65;;;2.17;;
52838;SDS011;39219;53.678;9.856;2023-04-03T07:40:53;4.10;;;1.60;;
52838;SDS011;39219;53.678;9.856;2023-04-03T07:43:19;4.63;;;1.40;;
52838;SDS011;39219;53.678;9.856;2023-04-03T07:45:46;2.95;;;1.27;;
52838;SDS011;39219;53.678;9.856;2023-04-03T07:48:16;4.22;;;1.20;;
52838;SDS011;39219;53.678;9.856;2023-04-03T07:50:43;4.15;;;1.48;;
52838;SDS011;39219;53.678;9.856;2023-04-03T07:53:09;4.43;;;1.27;;
52838;SDS011;39219;53.678;9.856;2023-04-03T07:55:36;3.22;;;1.20;;
52838;SDS011;39219;53.678;9.856;2023-04-03T07:58:08;3.53;;;1.20;;
52838;SDS011;39219;53.678;9.856;2023-04-03T08:00:34;4.55;;;1.30;;
52838;SDS011;39219;53.678;9.856;2023-04-03T08:03:00;4.43;;;1.33;;
52838;SDS011;39219;53.678;9.856;2023-04-03T08:05:28;3.63;;;1.50;;
52838;SDS011;39219;53.678;9.856;2023-04-03T08:07:54;4.13;;;1.33;;
52838;SDS011;39219;53.678;9.856;2023-04-03T08:10:21;4.35;;;1.10;;
52838;SDS011;39219;53.678;9.856;2023-04-03T08:12:47;4.35;;;1.20;;
52838;SDS011;39219;53.678;9.856;2023-04-03T08:15:13;2.90;;;1.05;;
52838;SDS011;39219;53.678;9.856;2023-04-03T08:17:40;4.45;;;1.10;;
52838;SDS011;39219;53.678;9.856;2023-04-03T08:20:06;3.53;;;1.00;;
52838;SDS011;39219;53.678;9.856;2023-04-03T08:22:34;2.83;;;1.13;;
52838;SDS011;39219;53.678;9.856;2023-04-03T08:25:00;4.18;;;1.23;;
52838;SDS011;39219;53.678;9.856;2023-04-03T08:27:27;3.13;;;1.10;;
52838;SDS011;39219;53.678;9.856;2023-04-03T08:29:53;3.75;;;0.95;;
52838;SDS011;39219;53.678;9.856;2023-04-03T08:32:19;2.95;;;1.00;;
52838;SDS011;39219;53.678;9.856;2023-04-03T08:34:46;3.05;;;0.80;;
52838;SDS011;39219;53.678;9.856;2023-04-03T08:37:12;2.35;;;1.10;;
52838;SDS011;39219;53.678;9.856;2023-04-03T08:39:40;4.00;;;1.10;;
52838;SDS011;39219;53.678;9.856;2023-04-03T08:42:11;4.25;;;1.38;;
52838;SDS011;39219;53.678;9.856;2023-04-03T08:44:42;2.70;;;1.27;;
52838;SDS011;39219;53.678;9.856;2023-04-03T08:47:14;4.45;;;1.50;;
52838;SDS011;39219;53.678;9.856;2023-04-03T08:49:44;6.00;;;1.58;;
52838;SDS011;39219;53.678;9.856;2023-04-03T08:52:16;3.30;;;1.30;;
52838;SDS011;39219;53.678;9.856;2023-04-03T08:54:49;3.45;;;1.13;;
52838;SDS011;39219;53.678;9.856;2023-04-03T08:57:15;4.35;;;1.40;;
52838;SDS011;39219;53.678;9.856;2023-04-03T08:59:43;4.78;;;1.10;;
52838;SDS011;39219;53.678;9.856;2023-04-03T09:02:16;4.00;;;1.30;;
52838;SDS011;39219;53.678;9.856;2023-04-03T09:04:47;5.93;;;1.20;;
52838;SDS011;39219;53.678;9.856;2023-04-03T09:07:13;2.78;;;1.30;;
52838;SDS011;39219;53.678;9.856;2023-04-03T09:09:42;3.17;;;1.23;;
52838;SDS011;39219;53.678;9.856;2023-04-03T09:12:14;5.47;;;1.42;;
52838;SDS011;39219;53.678;9.856;2023-04-03T09:14:42;4.38;;;1.58;;
52838;SDS011;39219;53.678;9.856;2023-04-03T09:17:12;5.40;;;1.30;;
52838;SDS011;39219;53.678;9.856;2023-04-03T09:19:41;2.70;;;1.35;;
52838;SDS011;39219;53.678;9.856;2023-04-03T09:22:11;3.22;;;1.38;;
52838;SDS011;39219;53.678;9.856;2023-04-03T09:24:39;4.85;;;1.27;;
52838;SDS011;39219;53.678;9.856;2023-04-03T09:27:06;3.97;;;1.15;;
52838;SDS011;39219;53.678;9.856;2023-04-03T09:29:35;4.85;;;1.23;;
52838;SDS011;39219;53.678;9.856;2023-04-03T09:32:03;2.83;;;1.08;;
52838;SDS011;39219;53.678;9.856;2023-04-03T09:34:35;3.97;;;1.27;;
52838;SDS011;39219;53.678;9.856;2023-04-03T09:37:03;3.88;;;1.38;;
52838;SDS011;39219;53.678;9.856;2023-04-03T09:39:31;6.03;;;1.30;;
52838;SDS011;39219;53.678;9.856;2023-04-03T09:41:59;3.60;;;1.27;;
52838;SDS011;39219;53.678;9.856;2023-04-03T09:44:26;3.67;;;1.27;;
52838;SDS011;39219;53.678;9.856;2023-04-03T09:46:54;3.83;;;1.00;;
52838;SDS011;39219;53.678;9.856;2023-04-03T09:49:20;3.05;;;1.05;;
52838;SDS011;39219;53.678;9.856;2023-04-03T09:51:47;3.47;;;1.40;;
52838;SDS011;39219;53.678;9.856;2023-04-03T09:54:24;5.03;;;1.40;;
52838;SDS011;39219;53.678;9.856;2023-04-03T09:56:51;3.10;;;1.20;;
52838;SDS011;39219;53.678;9.856;2023-04-03T09:59:17;6.70;;;1.45;;
52838;SDS011;39219;53.678;9.856;2023-04-03T10:01:44;2.78;;;1.20;;
52838;SDS011;39219;53.678;9.856;2023-04-03T10:04:23;4.10;;;1.20;;
52838;SDS011;39219;53.678;9.856;2023-04-03T10:06:50;4.15;;;1.52;;
52838;SDS011;39219;53.678;9.856;2023-04-03T10:09:18;4.40;;;1.45;;
52838;SDS011;39219;53.678;9.856;2023-04-03T10:11:58;5.63;;;1.20;;
52838;SDS011;39219;53.678;9.856;2023-04-03T10:14:26;4.05;;;1.40;;
52838;SDS011;39219;53.678;9.856;2023-04-03T10:16:53;5.43;;;1.65;;
52838;SDS011;39219;53.678;9.856;2023-04-03T10:19:29;2.47;;;1.00;;
52838;SDS011;39219;53.678;9.856;2023-04-03T10:21:57;2.45;;;1.00;;
52838;SDS011;39219;53.678;9.856;2023-04-03T10:24:28;2.95;;;1.20;;
52838;SDS011;39219;53.678;9.856;2023-04-03T10:26:57;4.47;;;1.50;;
52838;SDS011;39219;53.678;9.856;2023-04-03T10:29:30;4.35;;;1.63;;
52838;SDS011;39219;53.678;9.856;2023-04-03T10:32:00;4.03;;;1.10;;
52838;SDS011;39219;53.678;9.856;2023-04-03T10:34:29;2.35;;;1.10;;
52838;SDS011;39219;53.678;9.856;2023-04-03T10:36:57;2.35;;;0.85;;
52838;SDS011;39219;53.678;9.856;2023-04-03T10:39:27;3.38;;;1.40;;
52838;SDS011;39219;53.678;9.856;2023-04-03T10:42:00;4.53;;;1.23;;
52838;SDS011;39219;53.678;9.856;2023-04-03T10:44:30;5.55;;;1.27;;
52838;SDS011;39219;53.678;9.856;2023-04-03T10:47:00;3.63;;;1.20;;
52838;SDS011;39219;53.678;9.856;2023-04-03T10:49:33;3.78;;;1.60;;
52838;SDS011;39219;53.678;9.856;2023-04-03T10:52:03;5.55;;;1.42;;
52838;SDS011;39219;53.678;9.856;2023-04-03T10:54:32;3.03;;;1.00;;
52838;SDS011;39219;53.678;9.856;2023-04-03T10:57:01;3.92;;;1.10;;
52838;SDS011;39219;53.678;9.856;2023-04-03T10:59:30;4.60;;;1.25;;
52838;SDS011;39219;53.678;9.856;2023-04-03T11:01:59;1.73;;;1.00;;
52838;SDS011;39219;53.678;9.856;2023-04-03T11:04:27;2.97;;;1.08;;
52838;SDS011;39219;53.678;9.856;2023-04-03T11:06:57;5.25;;;1.45;;
52838;SDS011;39219;53.678;9.856;2023-04-03T11:09:26;2.55;;;1.10;;
52838;SDS011;39219;53.678;9.856;2023-04-03T11:11:55;3.55;;;1.33;;
52838;SDS011;39219;53.678;9.856;2023-04-03T11:14:24;3.97;;;1.55;;
52838;SDS011;39219;53.678;9.856;2023-04-03T11:16:53;5.38;;;1.50;;
52838;SDS011;39219;53.678;9.856;2023-04-03T11:19:23;3.85;;;1.50;;
52838;SDS011;39219;53.678;9.856;2023-04-03T11:21:56;4.45;;;1.30;;
52838;SDS011;39219;53.678;9.856;2023-04-03T11:24:25;1.40;;;1.05;;
52838;SDS011;39219;53.678;9.856;2023-04-03T11:26:52;5.30;;;1.10;;
52838;SDS011;39219;53.678;9.856;2023-04-03T11:29:20;5.15;;;1.30;;
52838;SDS011;39219;53.678;9.856;2023-04-03T11:31:56;3.42;;;1.30;;
52838;SDS011;39219;53.678;9.856;2023-04-03T11:34:29;2.38;;;1.17;;
52838;SDS011;39219;53.678;9.856;2023-04-03T11:37:01;5.32;;;1.50;;
52838;SDS011;39219;53.678;9.856;2023-04-03T11:39:32;4.95;;;1.58;;
52838;SDS011;39219;53.678;9.856;2023-04-03T11:42:12;2.83;;;1.27;;
52838;SDS011;39219;53.678;9.856;2023-04-03T11:44:39;3.45;;;1.50;;
52838;SDS011;39219;53.678;9.856;2023-04-03T11:47:06;3.90;;;1.42;;
52838;SDS011;39219;53.678;9.856;2023-04-03T11:49:53;4.15;;;1.58;;
52838;SDS011;39219;53.678;9.856;2023-04-03T11:55:34;3.92;;;1.15;;
52838;SDS011;39219;53.678;9.856;2023-04-03T11:58:03;3.28;;;1.40;;
52838;SDS011;39219;53.678;9.856;2023-04-03T12:00:45;2.72;;;1.17;;
52838;SDS011;39219;53.678;9.856;2023-04-03T12:08:43;2.50;;;0.98;;
52838;SDS011;39219;53.678;9.856;2023-04-03T12:11:15;3.60;;;1.20;;
52838;SDS011;39219;53.678;9.856;2023-04-03T12:14:01;3.05;;;1.27;;
52838;SDS011;39219;53.678;9.856;2023-04-03T12:16:30;4.68;;;1.27;;
52838;SDS011;39219;53.678;9.856;2023-04-03T12:18:59;4.40;;;1.40;;
52838;SDS011;39219;53.678;9.856;2023-04-03T12:24:26;2.78;;;1.23;;
52838;SDS011;39219;53.678;9.856;2023-04-03T12:27:02;3.80;;;1.40;;
52838;SDS011;39219;53.678;9.856;2023-04-03T12:29:33;3.40;;;1.40;;
52838;SDS011;39219;53.678;9.856;2023-04-03T12:32:04;3.78;;;0.85;;
52838;SDS011;39219;53.678;9.856;2023-04-03T12:34:39;1.23;;;0.90;;
52838;SDS011;39219;53.678;9.856;2023-04-03T12:37:15;4.13;;;1.23;;
52838;SDS011;39219;53.678;9.856;2023-04-03T12:39:45;4.10;;;1.30;;
52838;SDS011;39219;53.678;9.856;2023-04-03T12:42:20;3.13;;;1.52;;
52838;SDS011;39219;53.678;9.856;2023-04-03T12:44:49;3.47;;;1.10;;
52838;SDS011;39219;53.678;9.856;2023-04-03T12:47:25;2.90;;;1.00;;
52838;SDS011;39219;53.678;9.856;2023-04-03T12:49:53;3.20;;;1.20;;
52838;SDS011;39219;53.678;9.856;2023-04-03T12:52:22;3.10;;;1.20;;
52838;SDS011;39219;53.678;9.856;2023-04-03T12:54:50;2.40;;;1.00;;
52838;SDS011;39219;53.678;9.856;2023-04-03T12:57:19;3.50;;;1.10;;
52838;SDS011;39219;53.678;9.856;2023-04-03T12:59:46;3.25;;;1.33;;
52838;SDS011;39219;53.678;9.856;2023-04-03T13:02:17;2.55;;;1.20;;
52838;SDS011;39219;53.678;9.856;2023-04-03T13:04:45;3.03;;;1.20;;
52838;SDS011;39219;53.678;9.856;2023-04-03T13:07:18;1.90;;;1.08;;
52838;SDS011;39219;53.678;9.856;2023-04-03T13:09:44;3.55;;;1.25;;
52838;SDS011;39219;53.678;9.856;2023-04-03T13:12:22;2.10;;;1.02;;
52838;SDS011;39219;53.678;9.856;2023-04-03T13:14:51;4.28;;;1.45;;
52838;SDS011;39219;53.678;9.856;2023-04-03T13:17:18;3.53;;;1.20;;
52838;SDS011;39219;53.678;9.856;2023-04-03T13:19:45;2.38;;;1.00;;
52838;SDS011;39219;53.678;9.856;2023-04-03T13:22:15;3.95;;;1.33;;
52838;SDS011;39219;53.678;9.856;2023-04-03T13:24:45;4.05;;;1.10;;
52838;SDS011;39219;53.678;9.856;2023-04-03T13:27:13;3.90;;;1.27;;
52838;SDS011;39219;53.678;9.856;2023-04-03T13:29:40;4.25;;;1.50;;
52838;SDS011;39219;53.678;9.856;2023-04-03T13:32:07;4.22;;;1.40;;
52838;SDS011;39219;53.678;9.856;2023-04-03T13:34:41;3.28;;;1.10;;
52838;SDS011;39219;53.678;9.856;2023-04-03T13:37:11;3.50;;;1.10;;
52838;SDS011;39219;53.678;9.856;2023-04-03T13:39:44;2.83;;;1.33;;
52838;SDS011;39219;53.678;9.856;2023-04-03T13:42:15;3.45;;;1.40;;
52838;SDS011;39219;53.678;9.856;2023-04-03T13:44:44;3.63;;;1.30;;
52838;SDS011;39219;53.678;9.856;2023-04-03T13:47:20;2.03;;;1.05;;
52838;SDS011;39219;53.678;9.856;2023-04-03T13:49:58;4.88;;;1.35;;
52838;SDS011;39219;53.678;9.856;2023-04-03T13:52:26;2.85;;;1.20;;
52838;SDS011;39219;53.678;9.856;2023-04-03T13:54:53;3.95;;;1.40;;
52838;SDS011;39219;53.678;9.856;2023-04-03T13:57:20;3.00;;;1.20;;
52838;SDS011;39219;53.678;9.856;2023-04-03T13:59:48;2.97;;;1.42;;
52838;SDS011;39219;53.678;9.856;2023-04-03T14:02:17;3.25;;;1.10;;
52838;SDS011;39219;53.678;9.856;2023-04-03T14:04:45;2.33;;;1.05;;
52838;SDS011;39219;53.678;9.856;2023-04-03T14:07:12;4.60;;;1.35;;
52838;SDS011;39219;53.678;9.856;2023-04-03T14:09:39;3.42;;;1.40;;
52838;SDS011;39219;53.678;9.856;2023-04-03T14:12:07;3.00;;;1.65;;
52838;SDS011;39219;53.678;9.856;2023-04-03T14:14:35;4.28;;;1.30;;
52838;SDS011;39219;53.678;9.856;2023-04-03T14:17:16;5.53;;;1.80;;
52838;SDS011;39219;53.678;9.856;2023-04-03T14:19:42;3.83;;;1.40;;
52838;SDS011;39219;53.678;9.856;2023-04-03T14:22:11;2.72;;;1.38;;
52838;SDS011;39219;53.678;9.856;2023-04-03T14:24:39;6.20;;;1.55;;
52838;SDS011;39219;53.678;9.856;2023-04-03T14:27:08;5.00;;;1.60;;
52838;SDS011;39219;53.678;9.856;2023-04-03T14:29:37;3.45;;;1.40;;
52838;SDS011;39219;53.678;9.856;2023-04-03T14:32:05;6.45;;;1.73;;
52838;SDS011;39219;53.678;9.856;2023-04-03T14:34:31;7.43;;;1.55;;
52838;SDS011;39219;53.678;9.856;2023-04-03T14:36:57;4.53;;;1.75;;
52838;SDS011;39219;53.678;9.856;2023-04-03T14:39:24;4.75;;;1.45;;
52838;SDS011;39219;53.678;9.856;2023-04-03T14:41:50;5.00;;;1.92;;
52838;SDS011;39219;53.678;9.856;2023-04-03T14:44:16;3.42;;;1.50;;
52838;SDS011;39219;53.678;9.856;2023-04-03T14:46:43;3.45;;;1.75;;
52838;SDS011;39219;53.678;9.856;2023-04-03T14:49:13;6.53;;;1.40;;
52838;SDS011;39219;53.678;9.856;2023-04-03T14:51:40;3.58;;;1.38;;
52838;SDS011;39219;53.678;9.856;2023-04-03T14:54:09;3.88;;;1.40;;
52838;SDS011;39219;53.678;9.856;2023-04-03T14:56:36;3.00;;;1.20;;
52838;SDS011;39219;53.678;9.856;2023-04-03T14:59:04;3.22;;;1.20;;
52838;SDS011;39219;53.678;9.856;2023-04-03T15:01:35;5.25;;;1.60;;